createdAt,value
2018-11-03T00:00:12.668Z,99.99
2018-11-03T00:01:12.636Z,99.99
2018-11-03T00:02:12.603Z,99.99
2018-11-03T00:03:12.570Z,99.99
2018-11-03T00:04:12.537Z,99.99
2018-11-03T00:05:12.507Z,99.99
2018-11-03T00:06:12.474Z,99.99
2018-11-03T00:07:12.440Z,99.99
2018-11-03T00:08:12.409Z,99.99
2018-11-03T00:09:12.377Z,99.99
2018-11-03T00:10:12.345Z,99.99
2018-11-03T00:11:12.313Z,99.99
2018-11-03T00:12:12.281Z,99.99
2018-11-03T00:13:12.248Z,99.99
2018-11-03T00:14:12.216Z,99.99
2018-11-03T00:15:12.184Z,99.99
2018-11-03T00:16:12.152Z,99.99
2018-11-03T00:17:12.119Z,99.99
2018-11-03T00:18:12.089Z,99.99
2018-11-03T00:19:12.057Z,99.99
2018-11-03T00:20:12.025Z,99.99
2018-11-03T00:21:11.990Z,99.99
2018-11-03T00:22:11.958Z,99.99
2018-11-03T00:23:11.925Z,99.99
2018-11-03T00:24:11.892Z,99.99
2018-11-03T00:25:11.861Z,99.99
2018-11-03T00:26:11.828Z,99.99
2018-11-03T00:27:11.799Z,99.99
2018-11-03T00:28:11.764Z,99.99
2018-11-03T00:29:11.733Z,99.99
2018-11-03T00:30:11.709Z,99.99
2018-11-03T00:31:11.666Z,99.99
2018-11-03T00:32:11.634Z,99.99
2018-11-03T00:33:11.603Z,99.99
2018-11-03T00:34:11.570Z,99.99
2018-11-03T00:35:11.543Z,99.99
2018-11-03T00:36:11.507Z,99.99
2018-11-03T00:37:11.473Z,99.99
2018-11-03T00:38:11.442Z,99.99
2018-11-03T00:39:11.408Z,99.99
2018-11-03T00:40:11.376Z,99.99
2018-11-03T00:41:11.348Z,99.99
2018-11-03T00:42:11.312Z,99.99
2018-11-03T00:43:11.279Z,99.99
2018-11-03T00:44:11.250Z,99.99
2018-11-03T00:45:11.215Z,99.99
2018-11-03T00:46:11.184Z,99.99
2018-11-03T00:47:11.150Z,99.99
2018-11-03T00:48:11.118Z,99.99
2018-11-03T00:49:11.086Z,99.99
2018-11-03T00:50:11.053Z,99.99
2018-11-03T00:51:11.025Z,99.99
2018-11-03T00:52:10.989Z,99.99
2018-11-03T00:53:10.958Z,99.99
2018-11-03T00:54:10.924Z,99.99
2018-11-03T00:55:10.892Z,99.99
2018-11-03T00:56:10.859Z,99.99
2018-11-03T00:57:10.827Z,99.99
2018-11-03T00:58:10.794Z,99.99
2018-11-03T00:59:10.763Z,99.99
2018-11-03T01:00:10.730Z,99.99
2018-11-03T01:01:10.696Z,99.99
2018-11-03T01:02:10.670Z,99.99
2018-11-03T01:03:10.631Z,99.99
2018-11-03T01:04:10.600Z,99.99
2018-11-03T01:05:10.569Z,99.99
2018-11-03T01:06:10.536Z,99.99
2018-11-03T01:07:10.505Z,99.99
2018-11-03T01:08:10.471Z,99.99
2018-11-03T01:09:10.441Z,99.99
2018-11-03T01:10:10.405Z,99.99
2018-11-03T01:11:10.372Z,99.99
2018-11-03T01:12:10.341Z,99.99
2018-11-03T01:13:10.308Z,99.99
2018-11-03T01:14:10.275Z,99.99
2018-11-03T01:15:10.241Z,99.99
2018-11-03T01:16:10.210Z,99.99
2018-11-03T01:17:10.178Z,99.99
2018-11-03T01:18:10.146Z,99.99
2018-11-03T01:19:10.110Z,99.99
2018-11-03T01:20:10.079Z,99.99
2018-11-03T01:21:10.048Z,99.99
2018-11-03T01:22:10.014Z,99.99
2018-11-03T01:23:09.981Z,99.99
2018-11-03T01:24:09.952Z,99.99
2018-11-03T01:25:09.918Z,99.99
2018-11-03T01:26:09.882Z,99.99
2018-11-03T01:27:09.852Z,99.99
2018-11-03T01:28:09.817Z,99.99
2018-11-03T01:29:09.785Z,99.99
2018-11-03T01:30:09.754Z,99.99
2018-11-03T01:31:09.721Z,99.99
2018-11-03T01:32:09.687Z,99.99
2018-11-03T01:33:09.658Z,99.99
2018-11-03T01:34:09.622Z,99.99
2018-11-03T01:35:09.593Z,99.99
2018-11-03T01:36:09.557Z,99.99
2018-11-03T01:37:09.523Z,99.99
2018-11-03T01:38:09.493Z,99.99
2018-11-03T01:39:09.458Z,99.99
2018-11-03T01:40:09.425Z,99.99
2018-11-03T01:41:09.431Z,99.99
2018-11-03T01:42:09.361Z,99.99
2018-11-03T01:43:09.326Z,99.99
2018-11-03T01:44:09.295Z,99.99
2018-11-03T01:45:09.261Z,99.99
2018-11-03T01:46:09.228Z,99.99
2018-11-03T01:47:09.196Z,99.99
2018-11-03T01:48:09.162Z,99.99
2018-11-03T01:49:09.131Z,99.99
2018-11-03T01:50:09.098Z,99.99
2018-11-03T01:51:09.064Z,99.99
2018-11-03T01:52:09.031Z,99.99
2018-11-03T01:53:08.999Z,99.99
2018-11-03T01:54:08.966Z,99.99
2018-11-03T01:55:08.934Z,99.99
2018-11-03T01:56:08.900Z,99.99
2018-11-03T01:57:08.867Z,99.99
2018-11-03T01:58:08.835Z,99.99
2018-11-03T01:59:08.803Z,99.99
2018-11-03T02:00:08.774Z,99.99
2018-11-03T02:01:08.744Z,99.99
2018-11-03T02:02:08.707Z,99.99
2018-11-03T02:03:08.670Z,99.99
2018-11-03T02:04:08.639Z,99.99
2018-11-03T02:05:08.604Z,99.99
2018-11-03T02:06:08.574Z,99.99
2018-11-03T02:07:08.538Z,99.99
2018-11-03T02:08:08.505Z,99.99
2018-11-03T02:09:08.472Z,99.99
2018-11-03T02:10:08.442Z,99.99
2018-11-03T02:11:08.408Z,99.99
2018-11-03T02:12:08.374Z,99.99
2018-11-03T02:13:08.342Z,99.99
2018-11-03T02:14:08.308Z,99.99
2018-11-03T02:15:08.275Z,99.99
2018-11-03T02:16:08.243Z,99.99
2018-11-03T02:17:08.211Z,99.99
2018-11-03T02:18:08.176Z,99.99
2018-11-03T02:19:08.143Z,99.99
2018-11-03T02:20:08.110Z,99.99
2018-11-03T02:21:08.077Z,99.99
2018-11-03T02:22:08.046Z,99.99
2018-11-03T02:23:08.013Z,99.99
2018-11-03T02:24:08.008Z,99.99
2018-11-03T02:25:07.949Z,99.99
2018-11-03T02:26:07.917Z,99.99
2018-11-03T02:27:07.879Z,99.99
2018-11-03T02:28:07.846Z,99.99
2018-11-03T02:29:07.814Z,99.99
2018-11-03T02:30:07.781Z,99.99
2018-11-03T02:31:07.748Z,99.99
2018-11-03T02:32:07.715Z,99.99
2018-11-03T02:33:07.680Z,99.99
2018-11-03T02:34:07.652Z,99.99
2018-11-03T02:35:07.614Z,99.99
2018-11-03T02:36:07.588Z,99.99
2018-11-03T02:37:07.566Z,99.99
2018-11-03T02:38:07.518Z,99.99
2018-11-03T02:39:07.482Z,99.99
2018-11-03T02:40:07.463Z,99.99
2018-11-03T02:41:07.418Z,99.99
2018-11-03T02:42:07.386Z,99.99
2018-11-03T02:43:07.352Z,99.99
2018-11-03T02:44:07.321Z,99.99
2018-11-03T02:45:07.288Z,99.99
2018-11-03T02:46:07.271Z,99.99
2018-11-03T02:47:07.225Z,99.99
2018-11-03T02:48:07.189Z,99.99
2018-11-03T02:49:07.155Z,99.99
2018-11-03T02:50:07.124Z,99.99
2018-11-03T02:51:07.090Z,99.99
2018-11-03T02:52:07.058Z,99.99
2018-11-03T02:53:07.024Z,99.99
2018-11-03T02:54:06.992Z,99.99
2018-11-03T02:55:06.959Z,99.99
2018-11-03T02:56:06.927Z,99.99
2018-11-03T02:57:06.893Z,99.99
2018-11-03T02:58:06.860Z,99.99
2018-11-03T02:59:06.827Z,99.99
2018-11-03T03:00:06.794Z,99.99
2018-11-03T03:01:06.766Z,99.99
2018-11-03T03:02:06.730Z,99.99
2018-11-03T03:03:06.696Z,99.99
2018-11-03T03:04:06.663Z,99.99
2018-11-03T03:05:06.630Z,99.99
2018-11-03T03:06:06.603Z,99.99
2018-11-03T03:07:06.566Z,99.99
2018-11-03T03:08:06.533Z,99.99
2018-11-03T03:09:06.499Z,99.99
2018-11-03T03:10:06.468Z,99.99
2018-11-03T03:11:06.436Z,99.99
2018-11-03T03:12:06.401Z,99.99
2018-11-03T03:13:06.369Z,99.99
2018-11-03T03:14:06.336Z,99.99
2018-11-03T03:15:06.305Z,99.99
2018-11-03T03:16:06.271Z,99.99
2018-11-03T03:17:06.243Z,99.99
2018-11-03T03:18:06.206Z,99.99
2018-11-03T03:19:06.173Z,99.99
2018-11-03T03:20:06.141Z,99.99
2018-11-03T03:21:06.106Z,99.99
2018-11-03T03:22:06.074Z,99.99
2018-11-03T03:23:06.040Z,99.99
2018-11-03T03:24:06.010Z,99.99
2018-11-03T03:25:05.979Z,99.99
2018-11-03T03:26:05.942Z,99.99
2018-11-03T03:27:05.912Z,99.99
2018-11-03T03:28:05.877Z,99.99
2018-11-03T03:29:05.880Z,99.99
2018-11-03T03:30:05.815Z,99.99
2018-11-03T03:31:05.779Z,99.99
2018-11-03T03:32:05.746Z,99.99
2018-11-03T03:33:05.715Z,99.99
2018-11-03T03:34:05.683Z,99.99
2018-11-03T03:35:05.651Z,99.99
2018-11-03T03:36:05.615Z,99.99
2018-11-03T03:37:05.581Z,99.99
2018-11-03T03:38:05.562Z,99.99
2018-11-03T03:39:05.516Z,99.99
2018-11-03T03:40:05.484Z,99.99
2018-11-03T03:41:05.452Z,99.99
2018-11-03T03:42:05.420Z,99.99
2018-11-03T03:43:05.388Z,99.99
2018-11-03T03:44:05.361Z,99.99
2018-11-03T03:45:05.331Z,99.99
2018-11-03T03:46:05.293Z,99.99
2018-11-03T03:47:05.255Z,99.99
2018-11-03T03:48:05.223Z,99.99
2018-11-03T03:49:05.199Z,99.99
2018-11-03T03:50:05.160Z,99.99
2018-11-03T03:51:05.125Z,99.99
2018-11-03T03:52:05.092Z,99.99
2018-11-03T03:53:05.061Z,99.99
2018-11-03T03:54:05.028Z,99.99
2018-11-03T03:55:04.995Z,99.99
2018-11-03T03:56:04.971Z,99.99
2018-11-03T03:57:04.932Z,99.99
2018-11-03T03:58:04.896Z,99.99
2018-11-03T03:59:04.866Z,99.99
2018-11-03T04:00:04.830Z,99.99
2018-11-03T04:01:04.798Z,99.99
2018-11-03T04:02:04.767Z,99.99
2018-11-03T04:03:04.733Z,99.99
2018-11-03T04:04:04.699Z,99.99
2018-11-03T04:05:04.667Z,99.99
2018-11-03T04:06:04.636Z,99.99
2018-11-03T04:07:04.602Z,99.99
2018-11-03T04:08:04.568Z,99.99
2018-11-03T04:09:04.537Z,99.99
2018-11-03T04:10:04.505Z,99.99
2018-11-03T04:11:04.469Z,99.99
2018-11-03T04:12:04.435Z,99.99
2018-11-03T04:13:04.402Z,99.99
2018-11-03T04:14:04.371Z,99.99
2018-11-03T04:15:04.371Z,99.99
2018-11-03T04:16:04.305Z,99.99
2018-11-03T04:17:04.275Z,99.99
2018-11-03T04:18:04.239Z,99.99
2018-11-03T04:19:04.211Z,99.99
2018-11-03T04:20:04.171Z,99.99
2018-11-03T04:21:04.139Z,99.99
2018-11-03T04:22:04.137Z,99.99
2018-11-03T04:23:04.074Z,99.99
2018-11-03T04:24:04.045Z,99.99
2018-11-03T04:25:04.008Z,99.99
2018-11-03T04:26:03.975Z,99.99
2018-11-03T04:27:03.939Z,99.99
2018-11-03T04:28:03.907Z,99.99
2018-11-03T04:29:03.874Z,99.99
2018-11-03T04:30:03.841Z,99.99
2018-11-03T04:31:03.807Z,99.99
2018-11-03T04:32:03.774Z,99.99
2018-11-03T04:33:03.741Z,99.99
2018-11-03T04:34:03.709Z,99.99
2018-11-03T04:35:03.676Z,99.99
2018-11-03T04:36:03.643Z,99.99
2018-11-03T04:37:03.609Z,99.99
2018-11-03T04:38:03.575Z,99.99
2018-11-03T04:39:03.542Z,99.99
2018-11-03T04:40:03.508Z,99.99
2018-11-03T04:41:03.475Z,99.99
2018-11-03T04:42:03.443Z,99.99
2018-11-03T04:43:03.408Z,99.99
2018-11-03T04:44:03.375Z,99.99
2018-11-03T04:45:03.345Z,99.99
2018-11-03T04:46:03.309Z,99.99
2018-11-03T04:47:03.276Z,99.99
2018-11-03T04:48:03.243Z,99.99
2018-11-03T04:49:03.210Z,99.99
2018-11-03T04:50:03.175Z,99.99
2018-11-03T04:51:03.142Z,99.99
2018-11-03T04:52:03.109Z,99.99
2018-11-03T04:53:03.128Z,99.99
2018-11-03T04:54:03.046Z,99.99
2018-11-03T04:55:03.094Z,99.99
2018-11-03T04:56:02.975Z,99.99
2018-11-03T04:57:02.942Z,99.99
2018-11-03T04:58:02.910Z,99.99
2018-11-03T04:59:02.894Z,99.99
2018-11-03T05:00:02.842Z,99.99
2018-11-03T05:01:02.816Z,99.99
2018-11-03T05:02:02.775Z,99.99
2018-11-03T05:03:02.741Z,99.99
2018-11-03T05:04:02.709Z,99.99
2018-11-03T05:05:02.678Z,99.99
2018-11-03T05:06:02.642Z,99.99
2018-11-03T05:07:02.608Z,99.99
2018-11-03T05:08:02.574Z,99.99
2018-11-03T05:09:02.541Z,99.99
2018-11-03T05:10:02.560Z,99.99
2018-11-03T05:11:02.475Z,99.99
2018-11-03T05:12:02.442Z,99.99
2018-11-03T05:13:02.408Z,99.99
2018-11-03T05:14:02.377Z,99.99
2018-11-03T05:15:02.343Z,99.99
2018-11-03T05:16:02.310Z,99.99
2018-11-03T05:17:02.276Z,99.99
2018-11-03T05:18:02.248Z,99.99
2018-11-03T05:19:02.209Z,99.99
2018-11-03T05:20:02.176Z,99.99
2018-11-03T05:21:02.247Z,99.99
2018-11-03T05:22:02.111Z,99.99
2018-11-03T05:23:02.078Z,99.99
2018-11-03T05:24:02.044Z,99.99
2018-11-03T05:25:02.012Z,99.99
2018-11-03T05:26:01.978Z,99.99
2018-11-03T05:27:01.946Z,99.99
2018-11-03T05:28:01.911Z,99.99
2018-11-03T05:29:01.892Z,99.99
2018-11-03T05:30:01.854Z,99.99
2018-11-03T05:31:01.870Z,99.99
2018-11-03T05:32:01.803Z,99.99
2018-11-03T05:33:01.748Z,99.99
2018-11-03T05:34:01.714Z,99.99
2018-11-03T05:35:01.682Z,99.99
2018-11-03T05:36:01.648Z,99.99
2018-11-03T05:37:01.616Z,99.99
2018-11-03T05:38:01.584Z,99.99
2018-11-03T05:39:01.596Z,99.99
2018-11-03T05:40:01.517Z,99.99
2018-11-03T05:41:01.487Z,99.99
2018-11-03T05:42:01.450Z,99.99
2018-11-03T05:43:01.416Z,99.99
2018-11-03T05:44:01.384Z,99.99
2018-11-03T05:45:01.355Z,99.99
2018-11-03T05:46:01.319Z,99.99
2018-11-03T05:47:01.284Z,99.99
2018-11-03T05:48:01.253Z,99.99
2018-11-03T05:49:01.219Z,99.99
2018-11-03T05:50:01.190Z,99.99
2018-11-03T05:51:01.152Z,99.99
2018-11-03T05:52:01.118Z,99.99
2018-11-03T05:53:01.091Z,99.99
2018-11-03T05:54:01.054Z,99.99
2018-11-03T05:55:01.018Z,99.99
2018-11-03T05:56:00.989Z,99.99
2018-11-03T05:57:00.953Z,99.99
2018-11-03T05:58:00.921Z,99.99
2018-11-03T05:59:01.011Z,99.99
2018-11-03T06:00:00.859Z,99.99
2018-11-03T06:01:00.820Z,99.99
2018-11-03T06:02:00.787Z,99.99
2018-11-03T06:03:00.752Z,99.99
2018-11-03T06:04:00.721Z,99.99
2018-11-03T06:05:00.686Z,99.99
2018-11-03T06:06:00.653Z,99.99
2018-11-03T06:07:00.620Z,99.99
2018-11-03T06:08:00.587Z,99.99
2018-11-03T06:09:00.661Z,99.99
2018-11-03T06:10:00.524Z,99.99
2018-11-03T06:11:00.488Z,99.99
2018-11-03T06:12:00.454Z,99.99
2018-11-03T06:13:00.421Z,99.99
2018-11-03T06:14:00.388Z,99.99
2018-11-03T06:15:00.353Z,99.99
2018-11-03T06:16:00.321Z,99.99
2018-11-03T06:17:00.288Z,99.99
2018-11-03T06:18:00.256Z,99.99
2018-11-03T06:19:00.222Z,99.99
2018-11-03T06:20:00.189Z,99.99
2018-11-03T06:21:00.155Z,99.99
2018-11-03T06:22:00.123Z,99.99
2018-11-03T06:23:00.151Z,99.99
2018-11-03T06:24:00.058Z,99.99
2018-11-03T06:25:00.025Z,99.99
2018-11-03T06:25:59.989Z,99.99
2018-11-03T06:26:59.954Z,99.99
2018-11-03T06:27:59.972Z,99.99
2018-11-03T06:28:59.890Z,99.99
2018-11-03T06:29:59.855Z,99.99
2018-11-03T06:30:59.822Z,99.99
2018-11-03T06:31:59.793Z,99.99
2018-11-03T06:32:59.755Z,99.99
2018-11-03T06:33:59.745Z,99.99
2018-11-03T06:34:59.706Z,99.99
2018-11-03T06:35:59.654Z,99.99
2018-11-03T06:36:59.624Z,99.99
2018-11-03T06:37:59.588Z,99.99
2018-11-03T06:38:59.607Z,99.99
2018-11-03T06:39:59.522Z,99.99
2018-11-03T06:40:59.489Z,99.99
2018-11-03T06:41:59.456Z,99.99
2018-11-03T06:42:59.422Z,99.99
2018-11-03T06:43:59.394Z,99.99
2018-11-03T06:44:59.354Z,99.99
2018-11-03T06:45:59.321Z,99.99
2018-11-03T06:46:59.287Z,99.99
2018-11-03T06:47:59.254Z,99.99
2018-11-03T06:48:59.222Z,99.99
2018-11-03T06:49:59.188Z,99.99
2018-11-03T06:50:59.154Z,99.99
2018-11-03T06:51:59.151Z,99.99
2018-11-03T06:52:59.122Z,99.99
2018-11-03T06:53:59.053Z,99.99
2018-11-03T06:54:59.020Z,99.99
2018-11-03T06:55:58.995Z,99.99
2018-11-03T06:56:58.952Z,99.99
2018-11-03T06:57:58.920Z,99.99
2018-11-03T06:58:58.885Z,99.99
2018-11-03T06:59:58.853Z,99.99
2018-11-03T07:00:58.825Z,99.99
2018-11-03T07:01:58.791Z,99.99
2018-11-03T07:02:58.753Z,99.99
2018-11-03T07:03:58.720Z,99.99
2018-11-03T07:04:58.705Z,99.99
2018-11-03T07:05:58.652Z,99.99
2018-11-03T07:06:58.621Z,99.99
2018-11-03T07:07:58.587Z,99.99
2018-11-03T07:08:58.553Z,99.99
2018-11-03T07:09:58.521Z,99.99
2018-11-03T07:10:58.486Z,99.99
2018-11-03T07:11:58.461Z,99.99
2018-11-03T07:12:58.526Z,99.99
2018-11-03T07:13:58.388Z,99.99
2018-11-03T07:14:58.353Z,99.99
2018-11-03T07:15:58.321Z,99.99
2018-11-03T07:16:58.287Z,99.99
2018-11-03T07:17:58.254Z,99.99
2018-11-03T07:18:58.219Z,99.99
2018-11-03T07:19:58.186Z,99.99
2018-11-03T07:20:58.154Z,99.99
2018-11-03T07:21:58.123Z,99.99
2018-11-03T07:22:58.088Z,99.99
2018-11-03T07:23:58.053Z,99.99
2018-11-03T07:24:58.021Z,99.99
2018-11-03T07:25:57.988Z,99.99
2018-11-03T07:26:57.955Z,99.99
2018-11-03T07:27:57.924Z,99.99
2018-11-03T07:28:57.890Z,99.99
2018-11-03T07:29:57.858Z,99.99
2018-11-03T07:30:57.823Z,99.99
2018-11-03T07:31:57.815Z,99.99
2018-11-03T07:32:57.757Z,99.99
2018-11-03T07:33:57.730Z,99.99
2018-11-03T07:34:57.692Z,99.99
2018-11-03T07:35:57.658Z,99.99
2018-11-03T07:36:57.627Z,99.99
2018-11-03T07:37:57.598Z,99.99
2018-11-03T07:38:57.560Z,99.99
2018-11-03T07:39:57.528Z,99.99
2018-11-03T07:40:57.578Z,99.99
2018-11-03T07:41:57.462Z,99.99
2018-11-03T07:42:57.431Z,99.99
2018-11-03T07:43:57.397Z,99.99
2018-11-03T07:44:57.371Z,99.99
2018-11-03T07:45:57.331Z,99.99
2018-11-03T07:46:57.299Z,99.99
2018-11-03T07:47:57.279Z,99.99
2018-11-03T07:48:57.364Z,99.99
2018-11-03T07:49:57.203Z,99.99
2018-11-03T07:50:57.169Z,99.99
2018-11-03T07:51:57.140Z,99.99
2018-11-03T07:52:57.107Z,99.99
2018-11-03T07:53:57.076Z,99.99
2018-11-03T07:54:57.182Z,99.99
2018-11-03T07:55:57.017Z,99.99
2018-11-03T07:56:56.981Z,99.99
2018-11-03T07:57:56.950Z,99.99
2018-11-03T07:58:56.919Z,99.99
2018-11-03T07:59:56.890Z,99.99
2018-11-03T08:00:56.904Z,99.99
2018-11-03T08:01:56.828Z,99.99
2018-11-03T08:02:56.797Z,99.99
2018-11-03T08:03:56.767Z,99.99
2018-11-03T08:04:56.737Z,99.99
2018-11-03T08:05:56.707Z,99.99
2018-11-03T08:06:56.677Z,99.99
2018-11-03T08:07:56.648Z,99.99
2018-11-03T08:08:56.634Z,99.99
2018-11-03T08:09:56.596Z,99.99
2018-11-03T08:10:56.565Z,96.55
2018-11-03T08:11:56.530Z,93.98
2018-11-03T08:12:56.502Z,95.60
2018-11-03T08:13:56.474Z,93.70
2018-11-03T08:14:56.478Z,94.08
2018-11-03T08:15:56.416Z,92.79
2018-11-03T08:16:56.388Z,92.60
2018-11-03T08:17:56.361Z,92.32
2018-11-03T08:18:56.356Z,91.46
2018-11-03T08:19:56.304Z,92.36
2018-11-03T08:20:56.275Z,91.88
2018-11-03T08:21:56.247Z,88.84
2018-11-03T08:22:56.219Z,90.08
2018-11-03T08:23:56.273Z,89.79
2018-11-03T08:24:56.167Z,88.45
2018-11-03T08:25:56.138Z,89.45
2018-11-03T08:26:56.144Z,90.03
2018-11-03T08:27:56.086Z,89.78
2018-11-03T08:28:56.056Z,90.17
2018-11-03T08:29:56.029Z,88.11
2018-11-03T08:30:56.002Z,85.72
2018-11-03T08:31:55.976Z,85.25
2018-11-03T08:32:55.949Z,85.58
2018-11-03T08:33:55.923Z,86.05
2018-11-03T08:34:55.896Z,84.23
2018-11-03T08:35:55.870Z,84.28
2018-11-03T08:36:55.844Z,83.80
2018-11-03T08:37:55.842Z,82.03
2018-11-03T08:38:55.791Z,82.79
2018-11-03T08:39:55.766Z,81.74
2018-11-03T08:40:55.741Z,82.31
2018-11-03T08:41:55.735Z,82.70
2018-11-03T08:42:55.687Z,82.26
2018-11-03T08:43:55.663Z,81.30
2018-11-03T08:44:55.638Z,80.16
2018-11-03T08:45:55.644Z,79.05
2018-11-03T08:46:55.586Z,77.57
2018-11-03T08:47:55.562Z,79.91
2018-11-03T08:48:55.702Z,81.05
2018-11-03T08:49:55.510Z,77.80
2018-11-03T08:50:55.485Z,78.28
2018-11-03T08:51:55.459Z,78.86
2018-11-03T08:52:55.436Z,77.42
2018-11-03T08:53:55.410Z,77.55
2018-11-03T08:54:55.384Z,77.26
2018-11-03T08:55:55.360Z,76.21
2018-11-03T08:56:55.341Z,74.97
2018-11-03T08:57:55.312Z,74.68
2018-11-03T08:58:55.288Z,75.41
2018-11-03T08:59:55.410Z,76.14
2018-11-03T09:00:55.239Z,77.06
2018-11-03T09:01:55.214Z,78.58
2018-11-03T09:02:55.189Z,79.36
2018-11-03T09:03:55.163Z,81.89
2018-11-03T09:04:55.142Z,81.32
2018-11-03T09:05:55.116Z,80.84
2018-11-03T09:06:55.108Z,81.74
2018-11-03T09:07:55.072Z,79.35
2018-11-03T09:08:55.042Z,79.58
2018-11-03T09:09:55.066Z,79.24
2018-11-03T09:10:54.995Z,77.08
2018-11-03T09:11:54.993Z,76.73
2018-11-03T09:12:54.946Z,74.91
2018-11-03T09:13:54.922Z,74.24
2018-11-03T09:14:54.951Z,73.80
2018-11-03T09:15:54.876Z,72.45
2018-11-03T09:16:54.850Z,71.88
2018-11-03T09:17:54.830Z,71.94
2018-11-03T09:18:54.802Z,71.50
2018-11-03T09:19:54.779Z,71.75
2018-11-03T09:20:54.756Z,73.19
2018-11-03T09:21:54.766Z,73.13
2018-11-03T09:22:54.708Z,71.31
2018-11-03T09:23:54.685Z,70.83
2018-11-03T09:24:54.662Z,70.44
2018-11-03T09:25:54.657Z,71.11
2018-11-03T09:26:54.613Z,70.29
2018-11-03T09:27:54.591Z,69.29
2018-11-03T09:28:54.567Z,69.42
2018-11-03T09:29:54.543Z,69.39
2018-11-03T09:30:54.520Z,69.77
2018-11-03T09:31:54.521Z,69.96
2018-11-03T09:32:54.473Z,69.58
2018-11-03T09:33:54.452Z,69.74
2018-11-03T09:34:54.427Z,71.52
2018-11-03T09:35:54.401Z,72.71
2018-11-03T09:36:54.381Z,71.02
2018-11-03T09:37:54.357Z,69.39
2018-11-03T09:38:54.376Z,69.23
2018-11-03T09:39:54.311Z,68.95
2018-11-03T09:40:54.290Z,68.79
2018-11-03T09:41:54.263Z,66.89
2018-11-03T09:42:54.302Z,67.79
2018-11-03T09:43:54.217Z,66.86
2018-11-03T09:44:54.236Z,66.49
2018-11-03T09:45:54.170Z,65.84
2018-11-03T09:46:54.146Z,65.94
2018-11-03T09:47:54.124Z,64.92
2018-11-03T09:48:54.104Z,63.28
2018-11-03T09:49:54.079Z,63.67
2018-11-03T09:50:54.092Z,62.99
2018-11-03T09:51:54.031Z,62.84
2018-11-03T09:52:54.022Z,63.35
2018-11-03T09:53:53.989Z,63.92
2018-11-03T09:54:53.962Z,64.92
2018-11-03T09:55:53.937Z,66.22
2018-11-03T09:56:53.920Z,67.32
2018-11-03T09:57:53.892Z,66.77
2018-11-03T09:58:53.869Z,66.67
2018-11-03T09:59:53.847Z,64.72
2018-11-03T10:00:53.823Z,64.95
2018-11-03T10:01:53.806Z,63.92
2018-11-03T10:02:53.777Z,63.25
2018-11-03T10:03:53.753Z,62.90
2018-11-03T10:04:53.731Z,61.75
2018-11-03T10:05:53.724Z,61.11
2018-11-03T10:06:53.685Z,59.89
2018-11-03T10:07:53.663Z,59.89
2018-11-03T10:08:53.640Z,59.44
2018-11-03T10:09:53.617Z,60.24
2018-11-03T10:10:53.593Z,60.69
2018-11-03T10:11:53.570Z,60.21
2018-11-03T10:12:53.547Z,60.43
2018-11-03T10:13:53.525Z,59.69
2018-11-03T10:14:53.500Z,59.50
2018-11-03T10:15:53.509Z,58.22
2018-11-03T10:16:53.455Z,59.47
2018-11-03T10:17:53.432Z,60.21
2018-11-03T10:18:53.410Z,60.28
2018-11-03T10:19:53.386Z,61.11
2018-11-03T10:20:53.363Z,61.59
2018-11-03T10:21:53.346Z,62.16
2018-11-03T10:22:53.391Z,61.91
2018-11-03T10:23:53.297Z,61.81
2018-11-03T10:24:53.273Z,62.26
2018-11-03T10:25:53.252Z,62.42
2018-11-03T10:26:53.228Z,62.77
2018-11-03T10:27:53.206Z,65.17
2018-11-03T10:28:53.182Z,65.55
2018-11-03T10:29:53.161Z,65.39
2018-11-03T10:30:53.136Z,64.02
2018-11-03T10:31:53.114Z,62.55
2018-11-03T10:32:53.093Z,61.98
2018-11-03T10:33:53.241Z,62.16
2018-11-03T10:34:53.046Z,62.36
2018-11-03T10:35:53.022Z,62.77
2018-11-03T10:36:53.001Z,63.99
2018-11-03T10:37:52.979Z,62.87
2018-11-03T10:38:52.969Z,61.91
2018-11-03T10:39:52.932Z,60.53
2018-11-03T10:40:52.915Z,59.99
2018-11-03T10:41:52.887Z,56.40
2018-11-03T10:42:52.900Z,57.04
2018-11-03T10:43:52.851Z,60.02
2018-11-03T10:44:52.820Z,60.44
2018-11-03T10:45:52.796Z,61.91
2018-11-03T10:46:52.776Z,60.44
2018-11-03T10:47:52.751Z,60.35
2018-11-03T10:48:52.728Z,59.96
2018-11-03T10:49:52.707Z,59.77
2018-11-03T10:50:52.682Z,60.63
2018-11-03T10:51:52.663Z,61.33
2018-11-03T10:52:52.637Z,60.02
2018-11-03T10:53:52.615Z,57.40
2018-11-03T10:54:52.591Z,60.31
2018-11-03T10:55:52.569Z,60.41
2018-11-03T10:56:52.546Z,59.70
2018-11-03T10:57:52.525Z,57.45
2018-11-03T10:58:52.499Z,56.04
2018-11-03T10:59:52.476Z,54.82
2018-11-03T11:00:52.452Z,52.73
2018-11-03T11:01:52.429Z,51.79
2018-11-03T11:02:52.407Z,50.42
2018-11-03T11:03:52.385Z,50.54
2018-11-03T11:04:52.359Z,50.15
2018-11-03T11:05:52.369Z,49.68
2018-11-03T11:06:52.312Z,49.58
2018-11-03T11:07:52.290Z,49.48
2018-11-03T11:08:52.268Z,49.19
2018-11-03T11:09:52.244Z,50.45
2018-11-03T11:10:52.218Z,49.29
2018-11-03T11:11:52.196Z,49.22
2018-11-03T11:12:52.173Z,48.74
2018-11-03T11:13:52.169Z,49.02
2018-11-03T11:14:52.125Z,49.15
2018-11-03T11:15:52.194Z,48.76
2018-11-03T11:16:52.122Z,46.81
2018-11-03T11:17:52.056Z,47.56
2018-11-03T11:18:52.032Z,49.19
2018-11-03T11:19:52.010Z,47.92
2018-11-03T11:20:51.986Z,48.28
2018-11-03T11:21:51.971Z,47.80
2018-11-03T11:22:51.938Z,48.57
2018-11-03T11:23:51.938Z,48.28
2018-11-03T11:24:51.993Z,49.82
2018-11-03T11:25:51.885Z,48.47
2018-11-03T11:26:51.848Z,48.57
2018-11-03T11:27:51.822Z,49.17
2018-11-03T11:28:51.799Z,48.71
2018-11-03T11:29:51.781Z,47.82
2018-11-03T11:30:51.754Z,47.58
2018-11-03T11:31:51.755Z,49.55
2018-11-03T11:32:51.764Z,51.40
2018-11-03T11:33:51.683Z,51.69
2018-11-03T11:34:51.660Z,50.34
2018-11-03T11:35:51.638Z,48.38
2018-11-03T11:36:51.614Z,49.41
2018-11-03T11:37:51.591Z,51.59
2018-11-03T11:38:51.568Z,53.22
2018-11-03T11:39:51.544Z,53.82
2018-11-03T11:40:51.520Z,52.62
2018-11-03T11:41:51.498Z,49.69
2018-11-03T11:42:51.487Z,46.43
2018-11-03T11:43:51.449Z,46.45
2018-11-03T11:44:51.428Z,46.38
2018-11-03T11:45:51.402Z,45.63
2018-11-03T11:46:51.381Z,44.86
2018-11-03T11:47:51.357Z,45.61
2018-11-03T11:48:51.336Z,46.55
2018-11-03T11:49:51.309Z,47.30
2018-11-03T11:50:51.287Z,48.04
2018-11-03T11:51:51.262Z,49.10
2018-11-03T11:52:51.238Z,48.52
2018-11-03T11:53:51.220Z,48.59
2018-11-03T11:54:51.276Z,49.21
2018-11-03T11:55:51.168Z,50.82
2018-11-03T11:56:51.144Z,52.07
2018-11-03T11:57:51.122Z,53.03
2018-11-03T11:58:51.097Z,54.24
2018-11-03T11:59:51.074Z,52.71
2018-11-03T12:00:51.202Z,51.75
2018-11-03T12:01:51.025Z,52.01
2018-11-03T12:02:51.003Z,52.20
2018-11-03T12:03:50.977Z,53.93
2018-11-03T12:04:50.955Z,53.16
2018-11-03T12:05:50.929Z,51.56
2018-11-03T12:06:50.905Z,51.95
2018-11-03T12:07:50.882Z,52.55
2018-11-03T12:08:50.859Z,50.65
2018-11-03T12:09:50.889Z,49.79
2018-11-03T12:10:50.807Z,50.46
2018-11-03T12:11:50.783Z,49.88
2018-11-03T12:12:50.760Z,50.20
2018-11-03T12:13:50.735Z,48.28
2018-11-03T12:14:50.711Z,48.16
2018-11-03T12:15:50.759Z,49.69
2018-11-03T12:16:50.676Z,47.97
2018-11-03T12:17:50.648Z,49.19
2018-11-03T12:18:50.614Z,48.88
2018-11-03T12:19:50.591Z,49.93
2018-11-03T12:20:50.566Z,51.20
2018-11-03T12:21:50.541Z,49.29
2018-11-03T12:22:50.517Z,48.30
2018-11-03T12:23:50.493Z,49.52
2018-11-03T12:24:50.469Z,50.96
2018-11-03T12:25:50.588Z,50.51
2018-11-03T12:26:50.421Z,48.13
2018-11-03T12:27:50.394Z,47.37
2018-11-03T12:28:50.371Z,47.61
2018-11-03T12:29:50.345Z,46.38
2018-11-03T12:30:50.321Z,45.81
2018-11-03T12:31:50.297Z,46.28
2018-11-03T12:32:50.272Z,46.28
2018-11-03T12:33:50.250Z,46.69
2018-11-03T12:34:50.223Z,46.59
2018-11-03T12:35:50.198Z,47.08
2018-11-03T12:36:50.174Z,47.22
2018-11-03T12:37:50.150Z,48.74
2018-11-03T12:38:50.124Z,49.98
2018-11-03T12:39:50.101Z,49.88
2018-11-03T12:40:50.214Z,49.43
2018-11-03T12:41:50.069Z,50.29
2018-11-03T12:42:50.074Z,49.05
2018-11-03T12:43:50.006Z,48.57
2018-11-03T12:44:49.980Z,49.31
2018-11-03T12:45:49.957Z,48.71
2018-11-03T12:46:49.932Z,49.19
2018-11-03T12:47:49.909Z,50.15
2018-11-03T12:48:49.913Z,49.19
2018-11-03T12:49:49.860Z,49.31
2018-11-03T12:50:49.835Z,51.25
2018-11-03T12:51:49.810Z,51.25